Time;durP1;ratioP1;P1;durP2;ratioP2;P2;SDS_P1;SDS_P2;PMS_P1;PMS_P2;Temp;Humidity;BMP_temperature;BMP_pressure;BME280_temperature;BME280_humidity;BME280_pressure;Samples;Min_cycle;Max_cycle;Signal;HPM_P1;HPM_P2
2023/06/03 00:00:41;;;;;;;3.63;1.48;;;13.30;1.00;;;;;;20887257;28;20048;-40
2023/06/03 00:10:42;;;;;;;5.65;1.50;;;13.20;1.00;;;;;;20888295;28;20032;-40
2023/06/03 00:20:47;;;;;;;3.30;1.45;;;13.10;1.00;;;;;;20885150;28;20040;-40
2023/06/03 00:30:48;;;;;;;5.32;1.98;;;13.00;1.00;;;;;;20880639;28;20051;-40
2023/06/03 00:40:49;;;;;;;2.80;1.42;;;13.00;1.00;;;;;;20879430;28;20331;-41
2023/06/03 00:50:50;;;;;;;3.42;1.40;;;13.00;1.00;;;;;;20881787;28;20520;-41
2023/06/03 01:00:51;;;;;;;2.92;1.45;;;12.90;1.00;;;;;;20888737;28;20044;-41
2023/06/03 01:11:11;;;;;;;5.45;1.40;;;12.90;1.00;;;;;;20897785;28;20033;-40
2023/06/03 01:21:13;;;;;;;5.50;1.45;;;12.90;1.00;;;;;;20904727;28;20056;-41
2023/06/03 01:31:16;;;;;;;5.65;1.70;;;12.90;1.00;;;;;;20903356;28;20048;-41
2023/06/03 01:41:17;;;;;;;4.00;1.20;;;12.80;1.00;;;;;;20903380;28;20536;-41
2023/06/03 01:51:18;;;;;;;3.08;1.50;;;12.80;1.00;;;;;;20902744;28;20049;-40
2023/06/03 02:01:21;;;;;;;2.65;1.67;;;12.60;1.00;;;;;;20904789;28;20591;-41
2023/06/03 02:11:22;;;;;;;7.10;2.10;;;12.60;1.00;;;;;;20899958;28;20133;-40
2023/06/03 02:21:24;;;;;;;4.70;1.98;;;12.50;1.00;;;;;;20897908;28;20043;-40
2023/06/03 02:31:26;;;;;;;4.40;1.63;;;12.50;1.00;;;;;;20886950;28;20040;-40
2023/06/03 02:41:27;;;;;;;4.68;2.00;;;12.40;1.00;;;;;;20865440;28;20108;-40
2023/06/03 02:51:28;;;;;;;3.22;1.75;;;12.30;1.00;;;;;;20878269;28;20070;-41
2023/06/03 03:01:30;;;;;;;3.75;1.98;;;12.20;1.00;;;;;;20874197;28;20055;-40
2023/06/03 03:11:31;;;;;;;2.67;1.63;;;12.10;1.00;;;;;;20879602;28;20043;-41
2023/06/03 03:21:33;;;;;;;5.38;2.42;;;12.00;1.00;;;;;;20870771;28;20055;-41
2023/06/03 03:31:34;;;;;;;3.83;2.17;;;12.00;1.00;;;;;;20881202;28;20044;-41
2023/06/03 03:41:36;;;;;;;3.28;1.88;;;11.80;1.00;;;;;;20881793;28;20044;-40
2023/06/03 03:51:37;;;;;;;4.20;1.65;;;11.80;1.00;;;;;;20888474;28;20324;-40
2023/06/03 04:01:39;;;;;;;9.27;2.20;;;11.80;1.00;;;;;;20883165;28;20049;-41
2023/06/03 04:11:44;;;;;;;3.50;1.92;;;11.70;1.00;;;;;;20885679;28;20044;-41
2023/06/03 04:22:07;;;;;;;3.17;1.30;;;11.80;1.00;;;;;;20903237;28;20688;-42
2023/06/03 04:32:29;;;;;;;2.40;1.17;;;11.80;1.00;;;;;;20874181;28;20160;-40
2023/06/03 04:42:33;;;;;;;3.38;1.30;;;11.90;1.00;;;;;;20888905;28;20043;-41
2023/06/03 04:52:56;;;;;;;4.30;1.30;;;12.00;1.00;;;;;;20899686;28;20052;-41
2023/06/03 05:03:03;;;;;;;2.90;1.50;;;12.20;1.00;;;;;;20885558;28;20638;-41
2023/06/03 05:13:08;;;;;;;5.72;1.80;;;12.50;1.00;;;;;;20866989;28;20048;-41
2023/06/03 05:23:09;;;;;;;3.92;1.15;;;12.70;1.00;;;;;;20885086;28;20040;-41
2023/06/03 05:33:26;;;;;;;1.90;0.88;;;13.00;1.00;;;;;;20880081;28;20347;-41
2023/06/03 05:43:27;;;;;;;2.50;1.30;;;13.30;1.00;;;;;;20869594;28;20404;-41
2023/06/03 05:53:28;;;;;;;2.47;0.93;;;13.50;1.00;;;;;;20894435;28;20036;-41
2023/06/03 06:03:29;;;;;;;4.07;0.80;;;13.80;1.00;;;;;;20888796;28;20043;-41
2023/06/03 06:13:30;;;;;;;7.97;0.85;;;14.10;1.00;;;;;;20900083;28;20051;-41
2023/06/03 06:23:32;;;;;;;5.47;0.90;;;14.50;1.00;;;;;;20879978;28;20051;-41
2023/06/03 06:33:34;;;;;;;2.33;0.70;;;14.70;1.00;;;;;;20886592;28;20037;-41
2023/06/03 06:43:35;;;;;;;1.90;0.98;;;15.10;1.00;;;;;;20892149;28;20285;-41
2023/06/03 06:53:36;;;;;;;3.42;0.70;;;15.40;1.00;;;;;;20852229;28;20044;-41
2023/06/03 07:03:37;;;;;;;1.20;0.50;;;15.60;1.00;;;;;;20870882;28;20056;-41
2023/06/03 07:13:38;;;;;;;2.78;0.98;;;15.80;1.00;;;;;;20866503;28;20036;-42
2023/06/03 07:23:43;;;;;;;2.35;0.90;;;16.10;1.00;;;;;;20874652;28;20507;-39
2023/06/03 07:33:44;;;;;;;3.50;1.05;;;16.50;1.00;;;;;;20871949;28;20432;-39
2023/06/03 07:43:46;;;;;;;1.70;0.82;;;16.80;1.00;;;;;;20872948;28;20055;-39
2023/06/03 07:53:47;;;;;;;3.30;1.17;;;17.00;1.00;;;;;;20875172;28;20218;-39
2023/06/03 08:03:48;;;;;;;1.80;1.10;;;17.00;1.00;;;;;;20870937;28;20040;-39
2023/06/03 08:13:49;;;;;;;3.55;1.20;;;17.20;1.00;;;;;;20871463;28;20041;-39
2023/06/03 08:23:50;;;;;;;2.10;0.85;;;17.50;1.00;;;;;;20872065;28;20423;-39
2023/06/03 08:33:52;;;;;;;2.03;0.73;;;17.80;1.00;;;;;;20868620;28;20510;-39
2023/06/03 08:44:03;;;;;;;2.10;0.88;;;18.20;1.00;;;;;;20881243;28;20033;-39
2023/06/03 08:54:18;;;;;;;1.38;0.75;;;18.70;1.00;;;;;;20863793;28;20041;-39
2023/06/03 09:04:21;;;;;;;2.58;0.70;;;19.00;1.00;;;;;;20869433;28;20048;-39
2023/06/03 09:14:22;;;;;;;1.08;0.52;;;19.40;1.00;;;;;;20869376;28;20044;-39
2023/06/03 09:24:23;;;;;;;0.93;0.40;;;19.80;1.00;;;;;;20894418;28;20040;-39
2023/06/03 09:34:26;;;;;;;1.70;0.60;;;19.90;1.00;;;;;;20884518;28;20048;-40
2023/06/03 09:44:41;;;;;;;4.78;0.60;;;20.10;1.00;;;;;;20895102;28;20046;-40
2023/06/03 09:54:42;;;;;;;1.40;0.60;;;20.20;1.00;;;;;;20907338;28;20038;-40
2023/06/03 10:04:44;;;;;;;1.45;0.55;;;20.50;1.00;;;;;;20887352;28;20047;-40
2023/06/03 10:14:48;;;;;;;3.38;0.50;;;20.70;1.00;;;;;;20895623;28;20555;-39
2023/06/03 10:24:51;;;;;;;1.20;0.60;;;20.80;1.00;;;;;;20894214;28;20614;-39
2023/06/03 10:34:54;;;;;;;2.17;0.57;;;21.00;1.00;;;;;;20891906;28;20356;-40
2023/06/03 10:44:55;;;;;;;2.40;0.60;;;21.10;1.00;;;;;;20893232;28;20047;-40
2023/06/03 10:55:16;;;;;;;0.77;0.40;;;21.20;1.00;;;;;;20892175;28;20055;-40
2023/06/03 11:05:24;;;;;;;1.58;0.45;;;21.20;1.00;;;;;;20887327;28;20550;-40
2023/06/03 11:16:02;;;;;;;1.40;0.45;;;21.70;1.00;;;;;;20898742;28;21037;-40
2023/06/03 11:26:23;;;;;;;;;;;21.50;1.00;;;;;;20891556;28;20167;-40
2023/06/03 11:36:46;;;;;;;2.20;0.43;;;21.70;1.00;;;;;;20886359;28;20365;-40
2023/06/03 11:46:54;;;;;;;3.50;0.63;;;21.70;1.00;;;;;;20890008;28;20176;-40
2023/06/03 11:56:57;;;;;;;1.20;0.30;;;21.80;1.00;;;;;;20881609;28;20052;-40
2023/06/03 12:06:59;;;;;;;0.70;0.28;;;22.00;1.00;;;;;;20883512;28;20177;-40
2023/06/03 12:17:13;;;;;;;0.57;0.22;;;22.40;1.00;;;;;;20883903;28;20036;-40
2023/06/03 12:27:19;;;;;;;0.70;0.30;;;22.50;1.00;;;;;;20883678;28;20035;-40
2023/06/03 12:37:29;;;;;;;0.77;0.20;;;22.50;1.00;;;;;;20882051;28;20124;-40
2023/06/03 12:47:45;;;;;;;0.68;0.20;;;22.60;1.00;;;;;;20884205;28;20627;-40
2023/06/03 12:57:53;;;;;;;1.10;0.40;;;22.60;1.00;;;;;;20871329;28;20051;-40
2023/06/03 13:07:54;;;;;;;3.33;0.20;;;22.90;1.00;;;;;;20896461;28;20039;-40
2023/06/03 13:17:55;;;;;;;0.70;0.30;;;23.00;1.00;;;;;;20892267;28;20539;-40
2023/06/03 13:27:56;;;;;;;0.45;0.20;;;22.90;1.00;;;;;;20888779;28;20215;-40
2023/06/03 13:37:57;;;;;;;0.70;0.20;;;22.90;1.00;;;;;;20891338;28;20047;-40
2023/06/03 13:47:58;;;;;;;2.00;0.30;;;22.80;1.00;;;;;;20888135;28;20028;-40
2023/06/03 13:57:59;;;;;;;0.68;0.10;;;23.00;1.00;;;;;;20882905;28;20037;-40
2023/06/03 14:08:02;;;;;;;1.30;0.28;;;23.00;1.00;;;;;;20876622;28;20048;-40
2023/06/03 14:18:03;;;;;;;4.18;0.40;;;22.90;1.00;;;;;;20891257;28;20110;-40
2023/06/03 14:28:04;;;;;;;0.65;0.25;;;22.90;1.00;;;;;;20880036;28;20044;-40
2023/06/03 14:38:05;;;;;;;1.05;0.35;;;23.00;1.00;;;;;;20879568;28;20493;-40
2023/06/03 14:48:06;;;;;;;1.55;0.22;;;22.90;1.00;;;;;;20872341;28;20402;-40
2023/06/03 14:58:08;;;;;;;0.85;0.20;;;22.90;1.00;;;;;;20830577;28;20175;-40
2023/06/03 15:08:09;;;;;;;0.57;0.20;;;22.60;1.00;;;;;;20867470;28;20044;-40
2023/06/03 15:18:14;;;;;;;0.93;0.22;;;22.60;1.00;;;;;;20867363;28;20548;-40
2023/06/03 15:28:16;;;;;;;2.05;0.30;;;22.50;1.00;;;;;;20875394;28;20504;-40
2023/06/03 15:38:17;;;;;;;0.60;0.30;;;22.40;1.00;;;;;;20858432;28;20507;-40
2023/06/03 15:48:18;;;;;;;0.57;0.20;;;22.40;1.00;;;;;;20860883;28;20500;-40
2023/06/03 15:58:19;;;;;;;0.82;0.43;;;22.30;1.00;;;;;;20871350;28;20060;-40
2023/06/03 16:08:27;;;;;;;0.50;0.20;;;22.00;1.00;;;;;;20861080;28;20497;-40
2023/06/03 16:18:29;;;;;;;1.35;0.40;;;22.00;1.00;;;;;;20872704;28;20055;-40
2023/06/03 16:28:30;;;;;;;0.90;0.35;;;22.00;1.00;;;;;;20863603;28;20040;-40
2023/06/03 16:38:31;;;;;;;0.52;0.25;;;22.00;1.00;;;;;;20870638;28;20048;-40
2023/06/03 16:48:32;;;;;;;1.23;0.40;;;21.70;1.00;;;;;;20860973;28;20397;-40
2023/06/03 16:58:33;;;;;;;2.05;0.77;;;21.60;1.00;;;;;;20879089;28;20048;-40
2023/06/03 17:08:35;;;;;;;1.17;0.38;;;21.50;1.00;;;;;;20868527;28;20032;-40
2023/06/03 17:18:36;;;;;;;0.95;0.43;;;21.40;1.00;;;;;;20869265;28;20045;-40
2023/06/03 17:28:37;;;;;;;1.27;0.60;;;21.20;1.00;;;;;;20876163;28;20040;-40
2023/06/03 17:38:40;;;;;;;2.47;0.57;;;20.80;1.00;;;;;;20864375;28;20052;-40
2023/06/03 17:48:41;;;;;;;0.63;0.22;;;20.60;1.00;;;;;;20872118;28;20043;-40
2023/06/03 17:58:42;;;;;;;1.35;0.47;;;20.30;1.00;;;;;;20867404;28;20094;-40
2023/06/03 18:08:43;;;;;;;1.40;0.52;;;20.10;1.00;;;;;;20869338;28;20048;-40
2023/06/03 18:18:44;;;;;;;1.30;0.45;;;20.00;1.00;;;;;;20880792;28;20199;-40
2023/06/03 18:28:45;;;;;;;1.02;0.30;;;19.90;1.00;;;;;;20875101;28;20037;-40
2023/06/03 18:38:46;;;;;;;2.40;1.10;;;19.60;1.00;;;;;;20863597;28;20524;-40
2023/06/03 18:48:47;;;;;;;5.53;3.22;;;19.50;1.00;;;;;;20882555;28;20044;-40
2023/06/03 18:58:49;;;;;;;5.45;3.30;;;19.30;1.00;;;;;;20882519;28;20040;-40
2023/06/03 19:08:51;;;;;;;4.97;2.90;;;19.00;1.00;;;;;;20869930;28;20037;-40
2023/06/03 19:18:52;;;;;;;2.08;0.60;;;18.90;1.00;;;;;;20871027;28;20286;-40
2023/06/03 19:28:56;;;;;;;7.55;3.45;;;18.70;1.00;;;;;;20875610;28;20037;-40
2023/06/03 19:38:57;;;;;;;3.35;1.75;;;18.50;1.00;;;;;;20869968;28;20040;-40
2023/06/03 19:49:00;;;;;;;13.48;6.25;;;18.40;1.00;;;;;;20864798;28;20033;-40
2023/06/03 19:59:01;;;;;;;2.33;1.13;;;18.30;1.00;;;;;;20870611;28;20044;-40
2023/06/03 20:09:03;;;;;;;1.65;0.63;;;18.10;1.00;;;;;;20870696;28;20056;-40
2023/06/03 20:19:04;;;;;;;3.45;1.70;;;17.80;1.00;;;;;;20877833;28;20075;-40
2023/06/03 20:29:05;;;;;;;2.65;0.60;;;17.60;1.00;;;;;;20842846;28;20388;-40
2023/06/03 20:39:06;;;;;;;1.23;0.50;;;17.60;1.00;;;;;;20844645;28;20044;-40
2023/06/03 20:49:08;;;;;;;2.45;0.68;;;17.30;1.00;;;;;;20866022;28;20123;-40
2023/06/03 20:59:09;;;;;;;0.60;0.40;;;17.10;1.00;;;;;;20864353;28;20056;-40
2023/06/03 21:09:10;;;;;;;2.40;0.35;;;17.00;1.00;;;;;;20796760;28;20147;-40
2023/06/03 21:19:31;;;;;;;1.48;0.30;;;16.80;1.00;;;;;;20871634;28;20169;-40
2023/06/03 21:29:32;;;;;;;0.75;0.25;;;16.70;1.00;;;;;;20908517;28;20123;-40
2023/06/03 21:39:33;;;;;;;1.27;0.40;;;16.50;1.00;;;;;;20891422;28;20080;-40
2023/06/03 21:49:34;;;;;;;2.40;0.40;;;16.30;1.00;;;;;;20910929;28;20041;-40
2023/06/03 21:59:36;;;;;;;1.17;0.40;;;16.10;1.00;;;;;;20894346;28;20047;-40
2023/06/03 22:09:37;;;;;;;2.53;0.57;;;16.00;1.00;;;;;;20898179;28;20044;-40
2023/06/03 22:19:38;;;;;;;1.63;0.50;;;15.80;1.00;;;;;;20887013;28;20407;-39
2023/06/03 22:29:40;;;;;;;1.33;0.32;;;15.70;1.00;;;;;;20888507;28;20583;-40
2023/06/03 22:39:41;;;;;;;1.88;0.47;;;15.50;1.00;;;;;;20902740;28;20048;-40
2023/06/03 22:49:42;;;;;;;1.85;0.93;;;15.30;1.00;;;;;;20886944;28;20487;-39
2023/06/03 22:59:43;;;;;;;2.40;0.60;;;15.20;1.00;;;;;;20891718;28;20088;-39
2023/06/03 23:09:44;;;;;;;1.95;0.63;;;15.10;1.00;;;;;;20891397;28;20033;-39
2023/06/03 23:19:45;;;;;;;1.63;0.73;;;14.90;1.00;;;;;;20894096;28;20052;-39
2023/06/03 23:29:46;;;;;;;1.85;0.60;;;14.80;1.00;;;;;;20888830;28;20041;-40
2023/06/03 23:39:47;;;;;;;1.08;0.47;;;14.60;1.00;;;;;;20889500;28;20551;-39
2023/06/03 23:49:48;;;;;;;0.85;0.45;;;14.50;1.00;;;;;;20887872;28;20377;-39
2023/06/03 23:59:49;;;;;;;1.00;0.40;;;14.30;1.00;;;;;;20888655;28;20047;-39
